Terminal Aerodrome Forecast
Issued by NWS

Home | Current Version | Previous Version | Text Only | Print | Product List | Glossary On
Versions: 1 2 3 4 5 6 7 8 9 10 11 12
683
FTUS45 KVEF 111720
TAFHND
TAF
KHND 111720Z 1118/1218 02005KT P6SM SCT250
     FM120100 17007KT P6SM FEW250
     FM121000 VRB05KT P6SM SKC=

USA.gov is the U.S. government's official web portal to all federal, state and local government web resources and services.